sensor_id;sensor_type;location;lat;lon;timestamp;P1;durP1;ratioP1;P2;durP2;ratioP2
19575;SDS011;41589;51.196;7.074;2022-07-25T00:01:27;0.20;;;0.20;;
19575;SDS011;41589;51.196;7.074;2022-07-25T00:06:28;0.10;;;0.10;;
19575;SDS011;41589;51.196;7.074;2022-07-25T00:11:28;0.20;;;0.20;;
19575;SDS011;41589;51.196;7.074;2022-07-25T00:16:29;0.13;;;0.13;;
19575;SDS011;41589;51.196;7.074;2022-07-25T00:21:30;0.20;;;0.20;;
19575;SDS011;41589;51.196;7.074;2022-07-25T00:26:30;0.20;;;0.20;;
19575;SDS011;41589;51.196;7.074;2022-07-25T00:31:31;0.10;;;0.10;;
19575;SDS011;41589;51.196;7.074;2022-07-25T00:36:31;0.13;;;0.13;;
19575;SDS011;41589;51.196;7.074;2022-07-25T00:41:31;0.10;;;0.10;;
19575;SDS011;41589;51.196;7.074;2022-07-25T00:46:32;0.20;;;0.20;;
19575;SDS011;41589;51.196;7.074;2022-07-25T00:51:32;0.10;;;0.10;;
19575;SDS011;41589;51.196;7.074;2022-07-25T00:56:33;0.10;;;0.10;;
19575;SDS011;41589;51.196;7.074;2022-07-25T01:01:34;0.20;;;0.20;;
19575;SDS011;41589;51.196;7.074;2022-07-25T01:06:35;0.10;;;0.10;;
19575;SDS011;41589;51.196;7.074;2022-07-25T01:11:35;0.10;;;0.10;;
19575;SDS011;41589;51.196;7.074;2022-07-25T01:16:37;0.13;;;0.13;;
19575;SDS011;41589;51.196;7.074;2022-07-25T01:21:38;0.20;;;0.20;;
19575;SDS011;41589;51.196;7.074;2022-07-25T01:26:40;0.20;;;0.20;;
19575;SDS011;41589;51.196;7.074;2022-07-25T01:31:40;0.10;;;0.10;;
19575;SDS011;41589;51.196;7.074;2022-07-25T01:36:41;0.10;;;0.10;;
19575;SDS011;41589;51.196;7.074;2022-07-25T01:41:41;0.10;;;0.10;;
19575;SDS011;41589;51.196;7.074;2022-07-25T01:46:41;0.20;;;0.20;;
19575;SDS011;41589;51.196;7.074;2022-07-25T01:51:42;0.10;;;0.10;;
19575;SDS011;41589;51.196;7.074;2022-07-25T01:56:43;0.10;;;0.10;;
19575;SDS011;41589;51.196;7.074;2022-07-25T02:01:44;0.10;;;0.10;;
19575;SDS011;41589;51.196;7.074;2022-07-25T02:06:44;1.33;;;1.23;;
19575;SDS011;41589;51.196;7.074;2022-07-25T02:11:45;3.53;;;3.30;;
19575;SDS011;41589;51.196;7.074;2022-07-25T02:16:45;2.00;;;1.90;;
19575;SDS011;41589;51.196;7.074;2022-07-25T02:21:45;2.17;;;2.07;;
19575;SDS011;41589;51.196;7.074;2022-07-25T02:26:46;2.20;;;2.10;;
19575;SDS011;41589;51.196;7.074;2022-07-25T02:31:47;1.90;;;1.80;;
19575;SDS011;41589;51.196;7.074;2022-07-25T02:36:47;1.80;;;1.20;;
19575;SDS011;41589;51.196;7.074;2022-07-25T02:41:47;1.10;;;1.10;;
19575;SDS011;41589;51.196;7.074;2022-07-25T02:46:48;1.87;;;1.77;;
19575;SDS011;41589;51.196;7.074;2022-07-25T02:51:48;2.73;;;1.77;;
19575;SDS011;41589;51.196;7.074;2022-07-25T02:56:49;1.23;;;1.13;;
19575;SDS011;41589;51.196;7.074;2022-07-25T03:01:49;1.53;;;1.50;;
19575;SDS011;41589;51.196;7.074;2022-07-25T03:06:49;1.50;;;1.40;;
19575;SDS011;41589;51.196;7.074;2022-07-25T03:11:50;2.27;;;1.80;;
19575;SDS011;41589;51.196;7.074;2022-07-25T03:16:51;1.63;;;1.53;;
19575;SDS011;41589;51.196;7.074;2022-07-25T03:21:52;1.50;;;1.40;;
19575;SDS011;41589;51.196;7.074;2022-07-25T03:26:52;1.20;;;1.20;;
19575;SDS011;41589;51.196;7.074;2022-07-25T03:31:54;1.50;;;1.40;;
19575;SDS011;41589;51.196;7.074;2022-07-25T03:36:54;1.40;;;1.30;;
19575;SDS011;41589;51.196;7.074;2022-07-25T03:41:55;1.80;;;1.70;;
19575;SDS011;41589;51.196;7.074;2022-07-25T03:46:55;1.70;;;1.17;;
19575;SDS011;41589;51.196;7.074;2022-07-25T03:51:56;3.33;;;1.97;;
19575;SDS011;41589;51.196;7.074;2022-07-25T03:56:57;1.83;;;1.73;;
19575;SDS011;41589;51.196;7.074;2022-07-25T04:01:57;1.93;;;1.83;;
19575;SDS011;41589;51.196;7.074;2022-07-25T04:06:58;2.10;;;2.00;;
19575;SDS011;41589;51.196;7.074;2022-07-25T04:11:58;2.20;;;2.10;;
19575;SDS011;41589;51.196;7.074;2022-07-25T04:16:58;2.27;;;2.07;;
19575;SDS011;41589;51.196;7.074;2022-07-25T04:21:59;2.20;;;2.10;;
19575;SDS011;41589;51.196;7.074;2022-07-25T04:27:00;0.80;;;0.80;;
19575;SDS011;41589;51.196;7.074;2022-07-25T04:32:00;0.30;;;0.30;;
19575;SDS011;41589;51.196;7.074;2022-07-25T04:37:01;0.50;;;0.50;;
19575;SDS011;41589;51.196;7.074;2022-07-25T04:42:01;0.40;;;0.40;;
19575;SDS011;41589;51.196;7.074;2022-07-25T04:47:02;0.53;;;0.53;;
19575;SDS011;41589;51.196;7.074;2022-07-25T04:52:03;0.50;;;0.50;;
19575;SDS011;41589;51.196;7.074;2022-07-25T04:57:03;0.50;;;0.50;;
19575;SDS011;41589;51.196;7.074;2022-07-25T05:02:04;1.63;;;1.53;;
19575;SDS011;41589;51.196;7.074;2022-07-25T05:07:05;1.50;;;1.40;;
19575;SDS011;41589;51.196;7.074;2022-07-25T05:12:05;1.00;;;1.00;;
19575;SDS011;41589;51.196;7.074;2022-07-25T05:17:06;1.00;;;1.00;;
19575;SDS011;41589;51.196;7.074;2022-07-25T05:22:07;1.10;;;1.10;;
19575;SDS011;41589;51.196;7.074;2022-07-25T05:27:07;1.00;;;0.93;;
19575;SDS011;41589;51.196;7.074;2022-07-25T05:32:08;0.80;;;0.80;;
19575;SDS011;41589;51.196;7.074;2022-07-25T05:37:08;0.60;;;0.60;;
19575;SDS011;41589;51.196;7.074;2022-07-25T05:42:09;0.80;;;0.80;;
19575;SDS011;41589;51.196;7.074;2022-07-25T05:47:09;0.70;;;0.70;;
19575;SDS011;41589;51.196;7.074;2022-07-25T05:52:10;0.50;;;0.50;;
19575;SDS011;41589;51.196;7.074;2022-07-25T05:57:11;0.70;;;0.70;;
19575;SDS011;41589;51.196;7.074;2022-07-25T06:02:11;1.13;;;0.67;;
19575;SDS011;41589;51.196;7.074;2022-07-25T06:07:12;0.70;;;0.70;;
19575;SDS011;41589;51.196;7.074;2022-07-25T06:12:12;0.60;;;0.60;;
19575;SDS011;41589;51.196;7.074;2022-07-25T06:17:13;0.50;;;0.50;;
19575;SDS011;41589;51.196;7.074;2022-07-25T06:22:14;1.53;;;1.37;;
19575;SDS011;41589;51.196;7.074;2022-07-25T06:27:14;1.50;;;1.10;;
19575;SDS011;41589;51.196;7.074;2022-07-25T06:32:14;1.10;;;1.10;;
19575;SDS011;41589;51.196;7.074;2022-07-25T06:37:15;0.93;;;0.93;;
19575;SDS011;41589;51.196;7.074;2022-07-25T06:42:15;1.10;;;1.10;;
19575;SDS011;41589;51.196;7.074;2022-07-25T06:47:16;0.97;;;0.97;;
19575;SDS011;41589;51.196;7.074;2022-07-25T06:52:17;1.00;;;1.00;;
19575;SDS011;41589;51.196;7.074;2022-07-25T06:57:17;0.90;;;0.90;;
19575;SDS011;41589;51.196;7.074;2022-07-25T07:02:20;0.80;;;0.80;;
19575;SDS011;41589;51.196;7.074;2022-07-25T07:07:20;0.93;;;0.77;;
19575;SDS011;41589;51.196;7.074;2022-07-25T07:12:21;1.00;;;1.00;;
19575;SDS011;41589;51.196;7.074;2022-07-25T07:17:21;0.87;;;0.87;;
19575;SDS011;41589;51.196;7.074;2022-07-25T07:22:22;0.80;;;0.80;;
19575;SDS011;41589;51.196;7.074;2022-07-25T07:27:23;0.80;;;0.80;;
19575;SDS011;41589;51.196;7.074;2022-07-25T07:32:23;0.70;;;0.70;;
19575;SDS011;41589;51.196;7.074;2022-07-25T07:37:24;1.17;;;1.00;;
19575;SDS011;41589;51.196;7.074;2022-07-25T07:42:24;0.80;;;0.80;;
19575;SDS011;41589;51.196;7.074;2022-07-25T07:47:25;0.80;;;0.80;;
19575;SDS011;41589;51.196;7.074;2022-07-25T07:52:25;0.10;;;0.10;;
19575;SDS011;41589;51.196;7.074;2022-07-25T07:57:25;0.10;;;0.10;;
19575;SDS011;41589;51.196;7.074;2022-07-25T08:02:26;0.10;;;0.10;;
19575;SDS011;41589;51.196;7.074;2022-07-25T08:07:26;0.10;;;0.10;;
19575;SDS011;41589;51.196;7.074;2022-07-25T08:12:27;0.10;;;0.10;;
19575;SDS011;41589;51.196;7.074;2022-07-25T08:17:27;0.10;;;0.10;;
19575;SDS011;41589;51.196;7.074;2022-07-25T08:22:37;0.10;;;0.10;;
19575;SDS011;41589;51.196;7.074;2022-07-25T08:27:42;0.10;;;0.10;;
19575;SDS011;41589;51.196;7.074;2022-07-25T08:32:47;0.10;;;0.10;;
19575;SDS011;41589;51.196;7.074;2022-07-25T08:37:52;1.90;;;1.80;;
19575;SDS011;41589;51.196;7.074;2022-07-25T08:42:54;0.10;;;0.10;;
19575;SDS011;41589;51.196;7.074;2022-07-25T08:47:55;0.17;;;0.17;;
19575;SDS011;41589;51.196;7.074;2022-07-25T08:52:56;0.10;;;0.10;;
19575;SDS011;41589;51.196;7.074;2022-07-25T08:57:57;0.10;;;0.10;;
19575;SDS011;41589;51.196;7.074;2022-07-25T09:02:59;0.10;;;0.10;;
19575;SDS011;41589;51.196;7.074;2022-07-25T09:08:20;0.10;;;0.10;;
19575;SDS011;41589;51.196;7.074;2022-07-25T09:13:20;0.10;;;0.10;;
19575;SDS011;41589;51.196;7.074;2022-07-25T09:18:23;0.10;;;0.10;;
19575;SDS011;41589;51.196;7.074;2022-07-25T09:23:27;0.10;;;0.10;;
19575;SDS011;41589;51.196;7.074;2022-07-25T09:28:29;0.10;;;0.10;;
19575;SDS011;41589;51.196;7.074;2022-07-25T09:33:30;0.10;;;0.10;;
19575;SDS011;41589;51.196;7.074;2022-07-25T09:38:30;0.10;;;0.10;;
19575;SDS011;41589;51.196;7.074;2022-07-25T09:43:34;0.10;;;0.10;;
19575;SDS011;41589;51.196;7.074;2022-07-25T09:48:39;0.10;;;0.10;;
19575;SDS011;41589;51.196;7.074;2022-07-25T09:53:43;0.10;;;0.10;;
19575;SDS011;41589;51.196;7.074;2022-07-25T09:58:44;0.10;;;0.10;;
19575;SDS011;41589;51.196;7.074;2022-07-25T10:03:51;0.20;;;0.20;;
19575;SDS011;41589;51.196;7.074;2022-07-25T10:09:00;0.10;;;0.10;;
19575;SDS011;41589;51.196;7.074;2022-07-25T10:14:07;0.13;;;0.13;;
19575;SDS011;41589;51.196;7.074;2022-07-25T10:19:10;0.10;;;0.10;;
19575;SDS011;41589;51.196;7.074;2022-07-25T10:24:10;0.10;;;0.10;;
19575;SDS011;41589;51.196;7.074;2022-07-25T10:29:11;0.10;;;0.10;;
19575;SDS011;41589;51.196;7.074;2022-07-25T10:34:12;0.10;;;0.10;;
19575;SDS011;41589;51.196;7.074;2022-07-25T10:39:15;0.10;;;0.10;;
19575;SDS011;41589;51.196;7.074;2022-07-25T10:44:18;0.10;;;0.10;;
19575;SDS011;41589;51.196;7.074;2022-07-25T10:49:20;0.10;;;0.10;;
19575;SDS011;41589;51.196;7.074;2022-07-25T10:54:24;0.20;;;0.20;;
19575;SDS011;41589;51.196;7.074;2022-07-25T10:59:25;0.20;;;0.20;;
19575;SDS011;41589;51.196;7.074;2022-07-25T11:04:31;0.17;;;0.17;;
19575;SDS011;41589;51.196;7.074;2022-07-25T11:09:32;0.10;;;0.10;;
19575;SDS011;41589;51.196;7.074;2022-07-25T11:14:34;0.20;;;0.20;;
19575;SDS011;41589;51.196;7.074;2022-07-25T11:19:36;0.20;;;0.20;;
19575;SDS011;41589;51.196;7.074;2022-07-25T11:24:38;0.10;;;0.10;;
19575;SDS011;41589;51.196;7.074;2022-07-25T11:29:43;0.10;;;0.10;;
19575;SDS011;41589;51.196;7.074;2022-07-25T11:34:46;0.10;;;0.10;;
19575;SDS011;41589;51.196;7.074;2022-07-25T11:39:48;0.10;;;0.10;;
19575;SDS011;41589;51.196;7.074;2022-07-25T11:44:49;0.20;;;0.20;;
19575;SDS011;41589;51.196;7.074;2022-07-25T11:49:52;0.10;;;0.10;;
19575;SDS011;41589;51.196;7.074;2022-07-25T12:00:23;0.10;;;0.10;;
19575;SDS011;41589;51.196;7.074;2022-07-25T12:05:30;0.13;;;0.13;;
19575;SDS011;41589;51.196;7.074;2022-07-25T12:10:32;0.10;;;0.10;;
19575;SDS011;41589;51.196;7.074;2022-07-25T12:15:35;0.13;;;0.13;;
19575;SDS011;41589;51.196;7.074;2022-07-25T12:20:39;0.10;;;0.10;;
19575;SDS011;41589;51.196;7.074;2022-07-25T12:25:44;0.20;;;0.20;;
19575;SDS011;41589;51.196;7.074;2022-07-25T12:30:45;0.10;;;0.10;;
19575;SDS011;41589;51.196;7.074;2022-07-25T12:35:46;0.10;;;0.10;;
19575;SDS011;41589;51.196;7.074;2022-07-25T12:40:47;0.10;;;0.10;;
19575;SDS011;41589;51.196;7.074;2022-07-25T12:45:47;0.10;;;0.10;;
19575;SDS011;41589;51.196;7.074;2022-07-25T12:50:48;0.10;;;0.10;;
19575;SDS011;41589;51.196;7.074;2022-07-25T12:55:49;0.10;;;0.10;;
19575;SDS011;41589;51.196;7.074;2022-07-25T13:00:50;0.10;;;0.10;;
19575;SDS011;41589;51.196;7.074;2022-07-25T13:05:50;0.10;;;0.10;;
19575;SDS011;41589;51.196;7.074;2022-07-25T13:10:51;0.10;;;0.10;;
19575;SDS011;41589;51.196;7.074;2022-07-25T13:15:51;0.10;;;0.10;;
19575;SDS011;41589;51.196;7.074;2022-07-25T13:20:53;0.20;;;0.20;;
19575;SDS011;41589;51.196;7.074;2022-07-25T13:25:53;0.10;;;0.10;;
19575;SDS011;41589;51.196;7.074;2022-07-25T13:30:54;0.10;;;0.10;;
19575;SDS011;41589;51.196;7.074;2022-07-25T13:35:54;0.20;;;0.20;;
19575;SDS011;41589;51.196;7.074;2022-07-25T13:40:55;0.27;;;0.20;;
19575;SDS011;41589;51.196;7.074;2022-07-25T13:45:56;0.27;;;0.27;;
19575;SDS011;41589;51.196;7.074;2022-07-25T13:50:57;0.30;;;0.30;;
19575;SDS011;41589;51.196;7.074;2022-07-25T13:55:58;0.40;;;0.40;;
19575;SDS011;41589;51.196;7.074;2022-07-25T14:00:59;0.30;;;0.30;;
19575;SDS011;41589;51.196;7.074;2022-07-25T14:05:59;0.30;;;0.30;;
19575;SDS011;41589;51.196;7.074;2022-07-25T14:11:00;0.30;;;0.30;;
19575;SDS011;41589;51.196;7.074;2022-07-25T14:16:00;0.30;;;0.30;;
19575;SDS011;41589;51.196;7.074;2022-07-25T14:21:01;0.30;;;0.30;;
19575;SDS011;41589;51.196;7.074;2022-07-25T14:26:02;0.20;;;0.20;;
19575;SDS011;41589;51.196;7.074;2022-07-25T14:31:02;0.33;;;0.33;;
19575;SDS011;41589;51.196;7.074;2022-07-25T14:36:03;0.20;;;0.20;;
19575;SDS011;41589;51.196;7.074;2022-07-25T14:41:03;0.20;;;0.20;;
19575;SDS011;41589;51.196;7.074;2022-07-25T14:46:05;0.20;;;0.20;;
19575;SDS011;41589;51.196;7.074;2022-07-25T14:51:07;0.20;;;0.20;;
19575;SDS011;41589;51.196;7.074;2022-07-25T14:56:07;0.20;;;0.20;;
19575;SDS011;41589;51.196;7.074;2022-07-25T15:01:08;0.13;;;0.13;;
19575;SDS011;41589;51.196;7.074;2022-07-25T15:06:08;0.20;;;0.20;;
19575;SDS011;41589;51.196;7.074;2022-07-25T15:11:09;0.20;;;0.20;;
19575;SDS011;41589;51.196;7.074;2022-07-25T15:16:11;0.17;;;0.17;;
19575;SDS011;41589;51.196;7.074;2022-07-25T15:21:13;0.10;;;0.10;;
19575;SDS011;41589;51.196;7.074;2022-07-25T15:26:14;0.10;;;0.10;;
19575;SDS011;41589;51.196;7.074;2022-07-25T15:31:14;0.20;;;0.20;;
19575;SDS011;41589;51.196;7.074;2022-07-25T15:36:17;0.10;;;0.10;;
19575;SDS011;41589;51.196;7.074;2022-07-25T15:41:17;0.10;;;0.10;;
19575;SDS011;41589;51.196;7.074;2022-07-25T15:46:18;0.10;;;0.10;;
19575;SDS011;41589;51.196;7.074;2022-07-25T15:51:18;0.20;;;0.20;;
19575;SDS011;41589;51.196;7.074;2022-07-25T15:56:19;0.10;;;0.10;;
19575;SDS011;41589;51.196;7.074;2022-07-25T16:01:19;0.10;;;0.10;;
19575;SDS011;41589;51.196;7.074;2022-07-25T16:06:20;0.10;;;0.10;;
19575;SDS011;41589;51.196;7.074;2022-07-25T16:11:20;0.20;;;0.20;;
19575;SDS011;41589;51.196;7.074;2022-07-25T16:16:21;0.10;;;0.10;;
19575;SDS011;41589;51.196;7.074;2022-07-25T16:21:21;0.20;;;0.20;;
19575;SDS011;41589;51.196;7.074;2022-07-25T16:26:22;0.10;;;0.10;;
19575;SDS011;41589;51.196;7.074;2022-07-25T16:31:22;0.20;;;0.20;;
19575;SDS011;41589;51.196;7.074;2022-07-25T16:36:23;0.20;;;0.20;;
19575;SDS011;41589;51.196;7.074;2022-07-25T16:41:24;0.20;;;0.20;;
19575;SDS011;41589;51.196;7.074;2022-07-25T16:46:24;0.10;;;0.10;;
19575;SDS011;41589;51.196;7.074;2022-07-25T16:51:25;0.10;;;0.10;;
19575;SDS011;41589;51.196;7.074;2022-07-25T16:56:25;0.10;;;0.10;;
19575;SDS011;41589;51.196;7.074;2022-07-25T17:01:26;0.10;;;0.10;;
19575;SDS011;41589;51.196;7.074;2022-07-25T17:06:26;0.10;;;0.10;;
19575;SDS011;41589;51.196;7.074;2022-07-25T17:11:27;0.10;;;0.10;;
19575;SDS011;41589;51.196;7.074;2022-07-25T17:16:27;0.30;;;0.30;;
19575;SDS011;41589;51.196;7.074;2022-07-25T17:21:28;0.20;;;0.20;;
19575;SDS011;41589;51.196;7.074;2022-07-25T17:26:28;0.20;;;0.20;;
19575;SDS011;41589;51.196;7.074;2022-07-25T17:31:29;0.30;;;0.30;;
19575;SDS011;41589;51.196;7.074;2022-07-25T17:36:29;0.30;;;0.30;;
19575;SDS011;41589;51.196;7.074;2022-07-25T17:41:30;0.37;;;0.37;;
19575;SDS011;41589;51.196;7.074;2022-07-25T17:46:30;0.40;;;0.40;;
19575;SDS011;41589;51.196;7.074;2022-07-25T17:51:31;0.30;;;0.30;;
19575;SDS011;41589;51.196;7.074;2022-07-25T17:56:32;0.30;;;0.30;;
19575;SDS011;41589;51.196;7.074;2022-07-25T18:01:32;0.30;;;0.30;;
19575;SDS011;41589;51.196;7.074;2022-07-25T18:06:32;0.30;;;0.30;;
19575;SDS011;41589;51.196;7.074;2022-07-25T18:11:33;0.50;;;0.43;;
19575;SDS011;41589;51.196;7.074;2022-07-25T18:16:33;0.30;;;0.30;;
19575;SDS011;41589;51.196;7.074;2022-07-25T18:21:34;0.40;;;0.40;;
19575;SDS011;41589;51.196;7.074;2022-07-25T18:26:34;0.20;;;0.20;;
19575;SDS011;41589;51.196;7.074;2022-07-25T18:31:35;0.20;;;0.20;;
19575;SDS011;41589;51.196;7.074;2022-07-25T18:36:36;0.20;;;0.20;;
19575;SDS011;41589;51.196;7.074;2022-07-25T18:41:36;0.30;;;0.30;;
19575;SDS011;41589;51.196;7.074;2022-07-25T18:46:37;0.20;;;0.20;;
19575;SDS011;41589;51.196;7.074;2022-07-25T18:51:37;0.20;;;0.20;;
19575;SDS011;41589;51.196;7.074;2022-07-25T18:56:38;0.20;;;0.20;;
19575;SDS011;41589;51.196;7.074;2022-07-25T19:01:38;0.10;;;0.10;;
19575;SDS011;41589;51.196;7.074;2022-07-25T19:06:39;0.10;;;0.10;;
19575;SDS011;41589;51.196;7.074;2022-07-25T19:11:39;0.20;;;0.20;;
19575;SDS011;41589;51.196;7.074;2022-07-25T19:16:40;0.20;;;0.20;;
19575;SDS011;41589;51.196;7.074;2022-07-25T19:21:40;0.10;;;0.10;;
19575;SDS011;41589;51.196;7.074;2022-07-25T19:26:41;0.20;;;0.20;;
19575;SDS011;41589;51.196;7.074;2022-07-25T19:31:42;0.20;;;0.20;;
19575;SDS011;41589;51.196;7.074;2022-07-25T19:36:43;0.20;;;0.20;;
19575;SDS011;41589;51.196;7.074;2022-07-25T19:41:44;0.20;;;0.20;;
19575;SDS011;41589;51.196;7.074;2022-07-25T19:46:45;0.20;;;0.20;;
19575;SDS011;41589;51.196;7.074;2022-07-25T19:51:47;0.20;;;0.20;;
19575;SDS011;41589;51.196;7.074;2022-07-25T19:56:48;0.20;;;0.20;;
19575;SDS011;41589;51.196;7.074;2022-07-25T20:01:48;0.10;;;0.10;;
19575;SDS011;41589;51.196;7.074;2022-07-25T20:06:49;0.20;;;0.20;;
19575;SDS011;41589;51.196;7.074;2022-07-25T20:11:49;0.20;;;0.20;;
19575;SDS011;41589;51.196;7.074;2022-07-25T20:16:50;0.20;;;0.20;;
19575;SDS011;41589;51.196;7.074;2022-07-25T20:21:50;0.20;;;0.20;;
19575;SDS011;41589;51.196;7.074;2022-07-25T20:26:51;0.20;;;0.20;;
19575;SDS011;41589;51.196;7.074;2022-07-25T20:31:52;0.20;;;0.20;;
19575;SDS011;41589;51.196;7.074;2022-07-25T20:36:53;0.10;;;0.10;;
19575;SDS011;41589;51.196;7.074;2022-07-25T20:41:53;0.30;;;0.30;;
19575;SDS011;41589;51.196;7.074;2022-07-25T20:46:53;0.20;;;0.20;;
19575;SDS011;41589;51.196;7.074;2022-07-25T20:51:54;0.30;;;0.30;;
19575;SDS011;41589;51.196;7.074;2022-07-25T20:56:54;0.20;;;0.20;;
19575;SDS011;41589;51.196;7.074;2022-07-25T21:01:55;0.30;;;0.30;;
19575;SDS011;41589;51.196;7.074;2022-07-25T21:06:56;0.30;;;0.30;;
19575;SDS011;41589;51.196;7.074;2022-07-25T21:11:56;0.30;;;0.30;;
19575;SDS011;41589;51.196;7.074;2022-07-25T21:16:57;0.20;;;0.20;;
19575;SDS011;41589;51.196;7.074;2022-07-25T21:21:57;0.20;;;0.20;;
19575;SDS011;41589;51.196;7.074;2022-07-25T21:26:58;0.23;;;0.23;;
19575;SDS011;41589;51.196;7.074;2022-07-25T21:31:58;0.20;;;0.20;;
19575;SDS011;41589;51.196;7.074;2022-07-25T21:36:59;0.20;;;0.20;;
19575;SDS011;41589;51.196;7.074;2022-07-25T21:41:59;0.20;;;0.20;;
19575;SDS011;41589;51.196;7.074;2022-07-25T21:47:00;0.20;;;0.20;;
19575;SDS011;41589;51.196;7.074;2022-07-25T21:52:00;0.20;;;0.20;;
19575;SDS011;41589;51.196;7.074;2022-07-25T21:57:01;0.20;;;0.20;;
19575;SDS011;41589;51.196;7.074;2022-07-25T22:02:03;0.23;;;0.23;;
19575;SDS011;41589;51.196;7.074;2022-07-25T22:07:04;0.20;;;0.20;;
19575;SDS011;41589;51.196;7.074;2022-07-25T22:12:05;0.20;;;0.20;;
19575;SDS011;41589;51.196;7.074;2022-07-25T22:17:06;0.20;;;0.20;;
19575;SDS011;41589;51.196;7.074;2022-07-25T22:22:08;0.20;;;0.20;;
19575;SDS011;41589;51.196;7.074;2022-07-25T22:27:08;0.10;;;0.10;;
19575;SDS011;41589;51.196;7.074;2022-07-25T22:32:09;0.20;;;0.20;;
19575;SDS011;41589;51.196;7.074;2022-07-25T22:37:10;0.17;;;0.17;;
19575;SDS011;41589;51.196;7.074;2022-07-25T22:42:11;0.20;;;0.20;;
19575;SDS011;41589;51.196;7.074;2022-07-25T22:47:11;0.20;;;0.20;;
19575;SDS011;41589;51.196;7.074;2022-07-25T22:52:12;0.10;;;0.10;;
19575;SDS011;41589;51.196;7.074;2022-07-25T22:57:12;0.27;;;0.27;;
19575;SDS011;41589;51.196;7.074;2022-07-25T23:02:13;0.20;;;0.20;;
19575;SDS011;41589;51.196;7.074;2022-07-25T23:07:13;0.20;;;0.20;;
19575;SDS011;41589;51.196;7.074;2022-07-25T23:12:14;0.20;;;0.20;;
19575;SDS011;41589;51.196;7.074;2022-07-25T23:17:14;0.20;;;0.20;;
19575;SDS011;41589;51.196;7.074;2022-07-25T23:22:19;0.20;;;0.20;;
19575;SDS011;41589;51.196;7.074;2022-07-25T23:27:20;0.17;;;0.17;;
19575;SDS011;41589;51.196;7.074;2022-07-25T23:32:21;0.33;;;0.33;;
19575;SDS011;41589;51.196;7.074;2022-07-25T23:37:22;0.20;;;0.20;;
19575;SDS011;41589;51.196;7.074;2022-07-25T23:42:22;0.20;;;0.20;;
19575;SDS011;41589;51.196;7.074;2022-07-25T23:47:23;0.20;;;0.20;;
19575;SDS011;41589;51.196;7.074;2022-07-25T23:52:23;0.20;;;0.20;;
19575;SDS011;41589;51.196;7.074;2022-07-25T23:57:24;0.20;;;0.20;;
